Time;durP1;ratioP1;P1;durP2;ratioP2;P2;SDS_P1;SDS_P2;PMS_P1;PMS_P2;Temp;Humidity;BMP_temperature;BMP_pressure;BME280_temperature;BME280_humidity;BME280_pressure;Samples;Min_cycle;Max_cycle;Signal;HPM_P1;HPM_P2
2021/12/13 00:00:27;;;;;;;0.00;0.00;;;5.90;99.90;;;5.65;100.00;101688.88;4977753;28;20251;-84
2021/12/13 00:03:18;;;;;;;0.00;0.00;;;5.90;99.90;;;5.64;100.00;101686.19;5014992;28;20209;-84
2021/12/13 00:05:58;;;;;;;0.00;0.00;;;5.90;99.90;;;5.63;100.00;101690.53;4949509;28;20205;-84
2021/12/13 00:08:34;;;;;;;0.10;0.10;;;5.90;99.90;;;5.62;100.00;101688.72;4993876;28;20223;-85
2021/12/13 00:11:25;;;;;;;0.00;0.00;;;5.90;99.90;;;5.62;100.00;101686.09;4952454;28;20204;-84
2021/12/13 00:14:00;;;;;;;0.10;0.10;;;5.80;99.90;;;5.59;100.00;101685.94;4972951;28;20209;-83
2021/12/13 00:16:34;;;;;;;0.10;0.10;;;5.80;99.90;;;5.58;100.00;101680.63;4969400;28;20200;-84
2021/12/13 00:19:19;;;;;;;0.00;0.00;;;5.80;99.90;;;5.55;100.00;101673.50;4995805;28;20229;-83
2021/12/13 00:22:04;;;;;;;0.00;0.00;;;6.80;99.90;;;5.56;100.00;101674.41;4997501;28;20697;-83
2021/12/13 00:24:36;;;;;;;0.00;0.00;;;5.80;99.90;;;5.53;100.00;101679.50;4956173;28;20228;-84
2021/12/13 00:27:11;;;;;;;0.10;0.10;;;5.80;99.90;;;5.50;100.00;101682.88;4970033;28;20208;-83
2021/12/13 00:29:58;;;;;;;0.00;0.00;;;;;;;5.49;100.00;101682.81;4970092;28;20224;-84
2021/12/13 00:32:38;;;;;;;0.10;0.10;;;5.70;99.90;;;5.48;100.00;101695.03;4968312;28;20200;-83
2021/12/13 00:35:12;;;;;;;0.10;0.10;;;5.70;99.90;;;5.46;100.00;101694.94;4965306;28;20211;-84
2021/12/13 00:37:48;;;;;;;0.00;0.00;;;5.70;99.90;;;5.46;100.00;101688.78;4957229;28;20205;-84
2021/12/13 00:40:27;;;;;;;0.10;0.10;;;5.70;99.90;;;5.45;100.00;101689.63;4954626;28;20224;-84
2021/12/13 00:43:06;;;;;;;0.10;0.10;;;5.70;99.90;;;5.42;100.00;101695.63;4989675;28;20208;-84
2021/12/13 00:45:41;;;;;;;0.03;0.03;;;5.60;99.90;;;5.40;100.00;101689.41;4960831;28;20231;-83
2021/12/13 00:48:10;;;;;;;0.47;0.47;;;;;;;5.40;100.00;101699.00;4975865;28;20212;-84
2021/12/13 00:50:59;;;;;;;0.30;0.30;;;5.60;99.90;;;5.37;100.00;101699.72;4947363;28;20577;-83
2021/12/13 00:53:37;;;;;;;0.00;0.00;;;5.50;99.90;;;5.35;100.00;101706.63;4964542;28;20211;-84
2021/12/13 00:56:56;;;;;;;0.10;0.10;;;5.50;99.90;;;5.32;100.00;101698.59;4948856;28;20226;-84
2021/12/13 00:59:48;;;;;;;0.10;0.10;;;5.50;99.90;;;5.31;100.00;101696.81;4961939;28;20236;-84
2021/12/13 01:02:27;;;;;;;0.10;0.10;;;5.50;99.90;;;5.31;100.00;101698.53;4996000;28;20213;-84
2021/12/13 01:05:27;;;;;;;0.10;0.10;;;5.50;99.90;;;5.28;100.00;101695.75;4964737;28;20223;-84
2021/12/13 01:08:08;;;;;;;0.13;0.13;;;5.50;99.90;;;5.24;100.00;101697.31;4934579;28;20205;-84
2021/12/13 01:10:42;;;;;;;0.10;0.10;;;5.40;99.90;;;5.21;100.00;101688.41;4998837;28;20211;-84
2021/12/13 01:13:31;;;;;;;0.10;0.10;;;5.40;99.90;;;5.17;100.00;101691.66;4996824;28;20196;-84
2021/12/13 01:28:04;;;;;;;0.10;0.10;;;5.10;99.90;;;4.90;100.00;101696.38;4966489;28;20204;-84
2021/12/13 01:30:47;;;;;;;0.10;0.10;;;5.00;99.90;;;4.83;100.00;101703.94;4995823;23;20258;-75
2021/12/13 01:33:17;;;;;;;0.10;0.10;;;4.90;99.90;;;4.78;100.00;101700.16;4977014;28;20219;-75
2021/12/13 01:35:49;;;;;;;0.10;0.10;;;4.90;99.90;;;4.72;100.00;101706.81;4970070;28;20205;-75
2021/12/13 01:38:32;;;;;;;0.10;0.10;;;4.80;99.90;;;4.67;100.00;101698.69;4975844;28;20201;-76
2021/12/13 01:41:11;;;;;;;0.10;0.10;;;4.70;99.90;;;4.63;100.00;101701.97;4955612;28;20209;-75
2021/12/13 01:43:59;;;;;;;0.08;0.08;;;4.70;99.90;;;4.61;100.00;101713.19;4958962;28;20205;-75
2021/12/13 01:46:27;;;;;;;0.00;0.00;;;4.70;99.90;;;4.57;100.00;101711.22;4989292;28;20196;-76
2021/12/13 01:48:57;;;;;;;0.10;0.10;;;4.70;99.90;;;4.54;100.00;101711.06;4957899;28;20232;-75
2021/12/13 01:51:27;;;;;;;0.10;0.10;;;4.70;99.90;;;4.50;100.00;101715.25;4958276;28;20200;-76
2021/12/13 01:54:10;;;;;;;0.10;0.10;;;4.60;99.90;;;4.48;100.00;101716.88;4959726;28;20195;-76
2021/12/13 02:00:17;;;;;;;0.00;0.00;;;4.60;99.90;;;4.41;100.00;101715.66;4963789;28;20320;-76
2021/12/13 02:02:52;;;;;;;0.10;0.10;;;4.50;99.90;;;4.39;100.00;101708.53;4950427;28;20694;-75
2021/12/13 02:05:31;;;;;;;0.00;0.00;;;4.50;99.90;;;4.36;100.00;101704.03;4973774;28;20231;-75
2021/12/13 02:08:07;;;;;;;0.10;0.10;;;4.50;99.90;;;4.34;100.00;101707.38;4982436;28;20593;-75
2021/12/13 02:10:55;;;;;;;0.10;0.10;;;4.50;99.90;;;4.34;100.00;101720.47;4948048;28;20220;-75
2021/12/13 02:13:37;;;;;;;0.10;0.10;;;4.50;99.90;;;4.34;100.00;101723.09;5008591;28;20208;-75
2021/12/13 02:18:59;;;;;;;0.00;0.00;;;4.50;99.90;;;4.30;100.00;101722.03;4990559;28;20243;-75
2021/12/13 02:21:35;;;;;;;0.10;0.10;;;4.50;99.90;;;4.28;100.00;101726.28;4971093;28;20235;-75
2021/12/13 02:24:09;;;;;;;0.10;0.10;;;4.50;99.90;;;4.25;100.00;101726.09;4980879;28;20662;-75
2021/12/13 02:26:48;;;;;;;0.00;0.00;;;4.40;99.90;;;4.22;100.00;101720.69;4956501;28;20216;-75
2021/12/13 02:29:34;;;;;;;0.10;0.10;;;4.40;99.90;;;4.17;100.00;101725.69;4973868;28;20243;-76
2021/12/13 02:32:08;;;;;;;0.10;0.10;;;4.40;99.90;;;4.17;100.00;101732.63;4999515;28;20204;-76
2021/12/13 02:34:42;;;;;;;0.00;0.00;;;4.40;99.90;;;4.15;100.00;101736.91;4972419;28;20219;-75
2021/12/13 02:37:12;;;;;;;0.10;0.10;;;4.30;99.90;;;4.13;100.00;101734.19;4996991;28;20207;-75
2021/12/13 02:39:49;;;;;;;0.10;0.10;;;4.30;99.90;;;4.11;100.00;101724.44;4973735;28;20232;-75
2021/12/13 02:42:18;;;;;;;0.10;0.10;;;4.30;99.90;;;4.14;100.00;101737.72;4957697;28;20205;-77
2021/12/13 02:44:53;;;;;;;0.10;0.10;;;4.40;99.90;;;4.15;100.00;101742.13;4953124;28;20239;-75
2021/12/13 02:47:29;;;;;;;0.10;0.10;;;4.50;99.90;;;4.16;100.00;101754.41;4978652;28;20581;-76
2021/12/13 02:49:59;;;;;;;0.10;0.10;;;4.50;99.90;;;4.15;100.00;101743.03;4960051;28;20235;-75
2021/12/13 02:52:28;;;;;;;0.10;0.10;;;4.40;99.90;;;4.18;100.00;101753.66;4983832;28;20200;-76
2021/12/13 02:55:08;;;;;;;0.10;0.10;;;4.50;99.90;;;4.19;100.00;101751.97;4980139;28;20204;-75
2021/12/13 02:57:46;;;;;;;0.10;0.10;;;4.50;99.90;;;4.17;100.00;101754.50;4973272;28;20201;-75
2021/12/13 03:00:21;;;;;;;0.10;0.10;;;4.50;99.90;;;4.16;100.00;101754.41;4958069;28;20228;-75
2021/12/13 03:02:53;;;;;;;0.05;0.05;;;4.50;99.90;;;4.16;100.00;101754.41;4964017;28;20220;-75
2021/12/13 03:05:34;;;;;;;0.00;0.00;;;4.50;99.90;;;4.14;100.00;101743.84;4974353;28;20239;-76
2021/12/13 03:08:22;;;;;;;0.10;0.10;;;4.50;99.90;;;4.14;100.00;101754.31;4956256;28;20212;-76
2021/12/13 03:10:56;;;;;;;0.10;0.10;;;4.40;99.90;;;4.12;100.00;101742.84;4953598;28;20225;-77
2021/12/13 03:13:25;;;;;;;0.10;0.10;;;;;;;4.12;100.00;101752.44;4975872;28;20199;-76
2021/12/13 03:16:11;;;;;;;0.00;0.00;;;4.40;99.90;;;4.13;100.00;101756.84;4944932;28;20212;-75
2021/12/13 03:18:55;;;;;;;0.00;0.00;;;4.50;99.90;;;4.15;100.00;101761.34;4975152;28;20205;-75
2021/12/13 03:21:49;;;;;;;0.10;0.10;;;4.40;99.90;;;4.13;100.00;101763.00;4974803;28;20658;-75
2021/12/13 03:24:34;;;;;;;0.10;0.10;;;4.40;99.90;;;4.12;100.00;101760.28;4987227;28;20208;-75
2021/12/13 03:27:32;;;;;;;0.00;0.00;;;4.40;99.90;;;4.11;100.00;101756.75;4966286;28;20208;-75
2021/12/13 03:30:21;;;;;;;0.10;0.10;;;4.30;99.90;;;4.09;100.00;101766.25;4965585;28;20243;-76
2021/12/13 03:33:02;;;;;;;0.10;0.10;;;4.30;99.90;;;4.09;100.00;101771.50;4984070;28;20215;-74
2021/12/13 03:35:53;;;;;;;0.10;0.10;;;4.30;99.90;;;4.08;100.00;101767.06;4954251;28;20213;-76
2021/12/13 03:38:37;;;;;;;0.10;0.10;;;4.40;99.90;;;4.12;100.00;101770.75;4966379;28;20489;-77
2021/12/13 03:41:11;;;;;;;0.10;0.10;;;4.40;99.90;;;4.12;100.00;101766.44;4939454;28;20204;-75
2021/12/13 03:43:50;;;;;;;0.10;0.10;;;4.40;99.90;;;4.11;100.00;101771.56;4967946;28;20200;-75
2021/12/13 03:46:21;;;;;;;0.57;0.57;;;4.40;99.90;;;4.11;100.00;101769.84;4974140;28;20243;-77
2021/12/13 03:48:53;;;;;;;0.10;0.10;;;4.50;99.90;;;4.15;100.00;101770.94;4975715;28;20236;-75
2021/12/13 03:51:28;;;;;;;0.10;0.10;;;4.40;99.90;;;4.16;100.00;101767.50;4965678;28;20298;-76
2021/12/13 03:53:57;;;;;;;0.10;0.10;;;4.40;99.90;;;4.18;100.00;101766.75;4969575;28;20209;-75
2021/12/13 03:56:32;;;;;;;0.00;0.00;;;4.50;99.90;;;4.17;100.00;101770.19;4958960;28;20201;-76
2021/12/13 03:59:08;;;;;;;0.10;0.10;;;4.40;99.90;;;4.19;100.00;101775.53;4984021;28;20243;-76
2021/12/13 04:02:02;;;;;;;0.05;0.05;;;4.50;99.90;;;4.20;100.00;101784.28;4975352;28;20209;-75
2021/12/13 04:04:44;;;;;;;0.10;0.10;;;4.50;99.90;;;4.22;100.00;101787.88;5005206;28;20678;-75
2021/12/13 04:07:31;;;;;;;0.10;0.10;;;4.60;99.90;;;4.21;100.00;101783.47;4975812;28;20682;-76
2021/12/13 04:10:32;;;;;;;0.20;0.20;;;4.50;99.90;;;4.23;100.00;101787.06;4978174;28;20229;-75
2021/12/13 04:13:10;;;;;;;0.10;0.10;;;4.50;99.90;;;4.25;100.00;101785.44;4965558;28;20216;-75
2021/12/13 04:16:06;;;;;;;0.00;0.00;;;4.60;99.90;;;4.27;100.00;101789.94;4987744;28;20216;-75
2021/12/13 04:21:41;;;;;;;0.10;0.10;;;4.60;99.90;;;4.33;100.00;101797.25;4960330;28;20213;-76
2021/12/13 04:24:29;;;;;;;0.10;0.10;;;4.80;99.90;;;4.37;100.00;101802.72;4958821;28;20211;-75
2021/12/13 04:27:09;;;;;;;0.00;0.00;;;4.80;99.90;;;4.37;100.00;101799.22;4957944;28;20237;-76
2021/12/13 04:29:40;;;;;;;0.10;0.10;;;4.80;99.90;;;4.35;100.00;101801.75;4981564;28;20235;-75
2021/12/13 04:32:30;;;;;;;0.00;0.00;;;4.80;99.90;;;4.36;100.00;101807.88;4959385;28;20213;-75
2021/12/13 04:35:09;;;;;;;0.10;0.10;;;4.80;99.90;;;4.38;100.00;101811.50;4980726;28;20207;-75
2021/12/13 04:37:44;;;;;;;0.05;0.05;;;4.90;99.90;;;4.40;100.00;101807.25;4964346;28;20574;-75
2021/12/13 04:40:38;;;;;;;0.10;0.10;;;4.80;99.90;;;4.38;100.00;101808.88;4975094;28;20228;-75
2021/12/13 04:43:13;;;;;;;0.10;0.10;;;4.80;99.90;;;4.38;100.00;101811.50;4982683;28;20203;-76
2021/12/13 04:45:58;;;;;;;0.10;0.10;;;4.90;99.90;;;4.40;100.00;101813.38;4960173;28;20227;-75
2021/12/13 04:48:32;;;;;;;0.10;0.10;;;4.80;99.90;;;4.42;100.00;101813.47;4972409;28;20215;-77
2021/12/13 04:51:07;;;;;;;0.10;0.10;;;4.90;99.90;;;4.42;100.00;101810.84;4940426;28;20208;-75
2021/12/13 04:53:40;;;;;;;0.00;0.00;;;4.90;99.90;;;4.46;100.00;101815.44;4971170;28;20219;-76
2021/12/13 04:56:14;;;;;;;0.10;0.10;;;4.90;99.90;;;4.45;100.00;101817.16;4943701;28;20240;-77
2021/12/13 04:58:46;;;;;;;0.28;0.28;;;4.90;99.90;;;4.47;100.00;101817.25;4948512;28;20208;-75
2021/12/13 05:01:18;;;;;;;0.10;0.10;;;4.90;99.90;;;4.49;100.00;101823.47;4993046;28;20671;-75
2021/12/13 05:03:58;;;;;;;0.10;0.10;;;4.90;99.90;;;4.49;100.00;101823.47;4934915;28;20212;-77
2021/12/13 05:06:34;;;;;;;0.10;0.10;;;4.90;99.90;;;4.49;100.00;101813.00;4984048;28;20225;-74
2021/12/13 05:09:11;;;;;;;0.15;0.15;;;4.90;99.90;;;4.48;100.00;101821.66;4957696;28;20231;-74
2021/12/13 05:12:09;;;;;;;0.10;0.10;;;4.90;99.90;;;4.48;100.00;101826.91;4957217;28;20223;-75
2021/12/13 05:15:10;;;;;;;0.10;0.10;;;4.90;99.90;;;4.49;100.00;101827.00;4992973;28;20208;-75
2021/12/13 05:17:44;;;;;;;0.10;0.10;;;4.80;99.90;;;4.50;100.00;101826.16;4991894;28;20219;-79
2021/12/13 05:20:33;;;;;;;0.05;0.05;;;4.80;99.90;;;4.50;100.00;101834.03;4971732;28;20232;-79
2021/12/13 05:23:07;;;;;;;0.10;0.10;;;4.80;99.90;;;4.52;100.00;101833.22;4959478;28;20212;-77
2021/12/13 05:26:08;;;;;;;0.10;0.10;;;4.90;99.90;;;4.52;100.00;101839.34;4971892;28;20209;-78
2021/12/13 05:28:46;;;;;;;0.00;0.00;;;4.80;99.90;;;4.54;100.00;101840.34;4959032;28;20207;-77
2021/12/13 05:31:21;;;;;;;0.10;0.10;;;4.90;99.90;;;4.58;100.00;101850.19;4974226;28;20659;-78
2021/12/13 05:33:58;;;;;;;0.00;0.00;;;4.90;99.90;;;4.58;100.00;101846.66;4982916;28;20213;-77
2021/12/13 05:36:32;;;;;;;0.10;0.10;;;4.90;99.90;;;4.60;100.00;101851.16;4973561;28;20211;-78
2021/12/13 05:39:16;;;;;;;0.10;0.10;;;4.90;99.90;;;4.61;100.00;101852.06;4960287;28;20239;-79
2021/12/13 05:42:09;;;;;;;0.43;0.43;;;5.00;99.90;;;4.61;100.00;101852.06;4982867;28;20206;-78
2021/12/13 05:44:44;;;;;;;0.10;0.10;;;5.00;99.90;;;4.60;100.00;101855.50;4976016;28;20570;-76
2021/12/13 05:47:26;;;;;;;0.10;0.10;;;5.00;99.90;;;4.56;100.00;101846.56;4963686;28;20281;-76
2021/12/13 05:49:54;;;;;;;0.10;0.10;;;5.10;99.90;;;4.58;100.00;101854.50;4977648;28;20228;-76
2021/12/13 05:52:34;;;;;;;0.10;0.10;;;5.00;99.90;;;4.57;100.00;101852.72;4962307;28;20219;-76
2021/12/13 05:55:12;;;;;;;0.05;0.05;;;5.00;99.90;;;4.56;100.00;101851.81;4971505;28;20208;-77
2021/12/13 05:57:51;;;;;;;0.10;0.10;;;5.10;99.90;;;4.59;100.00;101859.84;4935677;28;20213;-76
2021/12/13 06:00:25;;;;;;;0.08;0.08;;;5.00;99.90;;;4.59;100.00;101851.06;4969856;28;20229;-76
2021/12/13 06:03:17;;;;;;;0.10;0.10;;;5.00;99.90;;;4.66;100.00;101854.13;4966682;28;20220;-79
2021/12/13 06:05:52;;;;;;;0.00;0.00;;;5.10;99.90;;;4.68;100.00;101865.59;4976943;28;20213;-76
2021/12/13 06:08:29;;;;;;;0.00;0.00;;;5.10;99.90;;;4.66;100.00;101863.72;4972070;28;20211;-78
2021/12/13 06:11:03;;;;;;;0.25;0.25;;;5.20;99.90;;;4.66;100.00;101876.81;4968718;28;20216;-76
2021/12/13 06:13:43;;;;;;;0.10;0.10;;;5.10;99.90;;;4.67;100.00;101879.50;4949403;28;20223;-78
2021/12/13 06:16:24;;;;;;;0.10;0.10;;;5.10;99.90;;;4.67;100.00;101883.84;4986088;28;20213;-77
2021/12/13 06:18:58;;;;;;;0.10;0.10;;;5.10;99.90;;;4.67;100.00;101879.50;4967839;28;20407;-76
2021/12/13 06:21:54;;;;;;;0.10;0.10;;;5.20;99.90;;;4.65;100.00;101878.53;4976528;28;20212;-76
2021/12/13 06:24:36;;;;;;;0.10;0.10;;;5.10;99.90;;;4.65;100.00;101882.88;4961259;28;20213;-76
2021/12/13 06:27:17;;;;;;;0.10;0.10;;;5.10;99.90;;;4.64;100.00;101878.44;4993719;28;20224;-76
2021/12/13 06:30:01;;;;;;;0.10;0.10;;;5.10;99.90;;;4.63;100.00;101888.03;4975587;28;20232;-76
2021/12/13 06:32:53;;;;;;;0.13;0.13;;;5.20;99.90;;;4.67;100.00;101887.38;4959212;28;20204;-76
2021/12/13 06:35:58;;;;;;;0.10;0.10;;;5.20;99.90;;;4.66;100.00;101884.66;4960075;28;20300;-76
2021/12/13 06:38:26;;;;;;;0.00;0.00;;;;;;;4.68;100.00;101896.13;4991980;28;20577;-76
2021/12/13 06:41:13;;;;;;;0.00;0.00;;;5.20;99.90;;;4.66;100.00;101903.91;4963100;28;20665;-76
2021/12/13 06:43:49;;;;;;;0.10;0.10;;;5.10;99.90;;;4.64;100.00;101894.16;4978446;28;20210;-76
2021/12/13 06:46:23;;;;;;;0.10;0.10;;;5.10;99.90;;;4.64;100.00;101891.53;4961663;28;20208;-75
2021/12/13 06:48:59;;;;;;;0.10;0.10;;;5.00;99.90;;;4.61;100.00;101894.91;4965228;28;20225;-75
2021/12/13 06:51:52;;;;;;;0.10;0.10;;;5.00;99.90;;;4.61;100.00;101896.59;4976829;28;20201;-76
2021/12/13 06:54:38;;;;;;;0.10;0.10;;;4.90;99.90;;;4.59;100.00;101893.00;5008329;28;20205;-75
2021/12/13 06:57:23;;;;;;;0.10;0.10;;;5.00;99.90;;;4.59;100.00;101883.41;4993915;28;20212;-76
2021/12/13 07:00:09;;;;;;;0.10;0.10;;;5.00;99.90;;;4.59;100.00;101895.63;4992978;28;20224;-75
2021/12/13 07:02:46;;;;;;;0.10;0.10;;;5.00;99.90;;;4.59;100.00;101900.88;4977298;28;20210;-76
2021/12/13 07:05:31;;;;;;;0.10;0.10;;;5.70;99.90;;;4.63;100.00;101889.75;4976298;28;20666;-75
2021/12/13 07:08:28;;;;;;;0.10;0.10;;;;;;;4.64;100.00;101894.16;4960942;28;20243;-76
2021/12/13 07:11:08;;;;;;;0.03;0.03;;;5.00;99.90;;;4.60;100.00;101893.09;4948804;28;20231;-75
2021/12/13 07:14:01;;;;;;;0.10;0.10;;;5.00;99.90;;;4.60;100.00;101884.31;4961169;28;20215;-76
2021/12/13 07:16:34;;;;;;;0.20;0.20;;;5.00;99.90;;;4.64;100.00;101892.44;4975458;28;20209;-76
2021/12/13 07:19:18;;;;;;;0.00;0.00;;;5.10;99.90;;;4.66;100.00;101892.53;4992897;28;20232;-76
2021/12/13 07:21:56;;;;;;;0.10;0.10;;;5.10;99.90;;;4.65;100.00;101893.34;4992562;28;20215;-76
2021/12/13 07:24:53;;;;;;;0.10;0.10;;;5.10;99.90;;;4.70;100.00;101898.03;4960873;28;20212;-76
2021/12/13 07:27:36;;;;;;;0.10;0.10;;;5.00;99.90;;;4.69;100.00;101913.66;4960490;28;20231;-76
2021/12/13 07:30:15;;;;;;;0.10;0.10;;;5.00;99.90;;;4.68;100.00;101915.38;4996697;23;20705;-82
2021/12/13 07:32:57;;;;;;;0.10;0.10;;;5.10;99.90;;;4.70;100.00;101911.13;4982039;28;20287;-81
2021/12/13 07:35:45;;;;;;;0.08;0.08;;;;;;;4.71;100.00;101920.78;5004485;28;20214;-82
2021/12/13 07:38:16;;;;;;;0.10;0.10;;;5.10;99.90;;;4.71;100.00;101923.41;4963911;28;20204;-84
2021/12/13 07:41:05;;;;;;;0.10;0.10;;;5.10;99.90;;;4.72;100.00;101919.97;4992923;28;20228;-84
2021/12/13 07:43:45;;;;;;;0.10;0.10;;;5.10;99.90;;;4.76;100.00;101921.06;4973381;28;20204;-84
2021/12/13 07:46:19;;;;;;;0.10;0.10;;;5.10;99.90;;;4.75;100.00;101922.78;4956846;28;20201;-84
2021/12/13 07:48:47;;;;;;;0.10;0.10;;;5.10;99.90;;;4.78;100.00;101932.53;4980684;28;20238;-84
2021/12/13 07:51:16;;;;;;;0.00;0.00;;;;;;;4.80;100.00;101931.78;4999938;28;20204;-83
2021/12/13 07:53:58;;;;;;;0.00;0.00;;;5.20;99.90;;;4.83;100.00;101933.69;4984545;28;20223;-84
2021/12/13 07:56:29;;;;;;;0.20;0.20;;;5.20;99.90;;;4.88;100.00;101933.94;4964857;28;20200;-84
2021/12/13 07:59:40;;;;;;;0.05;0.05;;;5.30;99.90;;;4.93;100.00;101937.72;4978002;28;20208;-84
2021/12/13 08:02:33;;;;;;;0.05;0.05;;;5.40;99.90;;;4.97;100.00;101943.22;4929373;29;20213;-84
2021/12/13 08:05:13;;;;;;;0.10;0.10;;;5.40;99.90;;;5.00;100.00;101956.50;4892088;29;20217;-84
2021/12/13 08:07:49;;;;;;;0.00;0.00;;;5.40;99.90;;;5.05;100.00;101960.28;4983117;28;20247;-84
2021/12/13 08:10:30;;;;;;;0.10;0.10;;;5.50;99.90;;;5.09;100.00;101966.59;4982584;28;20223;-84
2021/12/13 08:13:16;;;;;;;0.10;0.10;;;5.60;99.90;;;5.12;100.00;101978.16;4993651;28;20209;-84
2021/12/13 08:15:53;;;;;;;0.00;0.00;;;5.60;99.90;;;5.15;100.00;101977.41;4996517;28;20226;-84
2021/12/13 08:18:39;;;;;;;0.10;0.10;;;5.60;99.90;;;5.18;100.00;101977.59;4974769;28;20207;-84
2021/12/13 08:21:26;;;;;;;0.10;0.10;;;5.60;99.90;;;5.21;100.00;101979.50;4976246;28;20250;-84
2021/12/13 08:24:00;;;;;;;0.10;0.10;;;5.60;99.90;;;5.20;100.00;101982.91;4991253;28;20219;-84
2021/12/13 08:26:42;;;;;;;0.10;0.10;;;5.60;99.90;;;5.21;100.00;101976.91;4972990;28;20215;-84
2021/12/13 08:29:36;;;;;;;0.10;0.10;;;5.60;99.90;;;5.26;100.00;101981.56;4976269;28;20238;-84
2021/12/13 08:32:15;;;;;;;0.10;0.10;;;5.70;99.90;;;5.29;100.00;101987.00;4975714;28;20211;-84
2021/12/13 08:34:49;;;;;;;0.00;0.00;;;5.70;99.90;;;5.31;100.00;101982.72;4971265;28;20211;-84
2021/12/13 08:37:41;;;;;;;0.10;0.10;;;5.70;99.90;;;5.34;100.00;101980.28;4978575;28;20196;-84
2021/12/13 08:40:19;;;;;;;0.10;0.10;;;5.70;99.90;;;5.37;100.00;101987.41;4978748;28;20230;-84
2021/12/13 08:42:50;;;;;;;0.10;0.10;;;5.70;99.90;;;5.37;100.00;101985.69;4977457;28;20201;-84
2021/12/13 08:45:31;;;;;;;0.25;0.25;;;5.70;99.90;;;5.39;100.00;101989.28;4994075;28;20211;-84
2021/12/13 08:48:08;;;;;;;0.10;0.10;;;5.70;99.90;;;5.46;100.00;102001.03;5005596;28;20231;-84
2021/12/13 08:50:45;;;;;;;0.00;0.00;;;5.80;99.90;;;5.49;100.00;101995.94;4993450;28;20231;-84
2021/12/13 08:53:29;;;;;;;0.10;0.10;;;5.90;99.90;;;5.53;100.00;102007.50;4974999;28;20204;-84
2021/12/13 08:56:10;;;;;;;0.00;0.00;;;5.90;99.90;;;5.60;100.00;102017.53;4975115;28;20219;-84
2021/12/13 08:59:01;;;;;;;0.20;0.20;;;6.00;99.90;;;5.66;100.00;102023.09;4995284;28;20279;-84
2021/12/13 09:01:52;;;;;;;0.00;0.00;;;6.00;99.90;;;5.67;100.00;102014.41;4987726;28;20204;-84
2021/12/13 09:04:32;;;;;;;0.10;0.10;;;6.00;99.90;;;5.68;100.00;102005.72;4990180;28;20205;-84
2021/12/13 09:07:05;;;;;;;0.00;0.00;;;6.10;99.90;;;5.74;100.00;102019.16;4980023;28;20212;-84
2021/12/13 09:09:34;;;;;;;0.00;0.00;;;;;;;5.76;100.00;102018.44;4987960;28;20235;-84
2021/12/13 09:12:08;;;;;;;0.00;0.00;;;6.10;99.90;;;5.79;100.00;102015.97;4984388;28;20204;-84
2021/12/13 09:14:51;;;;;;;0.65;0.65;;;6.20;99.90;;;5.85;100.00;102017.13;4993392;28;20207;-84
2021/12/13 09:17:31;;;;;;;0.10;0.10;;;6.20;99.90;;;5.84;100.00;102021.47;4980452;28;20214;-84
2021/12/13 09:20:17;;;;;;;0.00;0.00;;;6.20;99.90;;;5.87;100.00;102019.00;4984726;28;20232;-84
2021/12/13 09:22:58;;;;;;;0.08;0.08;;;6.20;99.90;;;5.95;100.00;102028.22;5001237;28;20204;-84
2021/12/13 09:25:40;;;;;;;0.00;0.00;;;6.30;99.90;;;6.00;100.00;102028.47;4986619;28;20227;-84
2021/12/13 09:28:24;;;;;;;0.00;0.00;;;6.40;99.90;;;6.05;100.00;102030.50;4980782;28;20212;-84
2021/12/13 09:30:52;;;;;;;0.10;0.10;;;;;;;6.11;100.00;102029.94;4977331;28;20254;-84
2021/12/13 09:33:24;;;;;;;0.00;0.00;;;6.50;99.90;;;6.15;100.00;102033.63;4997819;28;20214;-84
2021/12/13 09:36:04;;;;;;;0.10;0.10;;;6.50;99.90;;;6.17;100.00;102029.34;4966507;28;20200;-84
2021/12/13 09:38:35;;;;;;;0.10;0.10;;;6.50;99.90;;;6.20;100.00;102030.41;4983068;28;20584;-84
2021/12/13 09:41:30;;;;;;;0.00;0.00;;;6.50;99.90;;;6.25;100.00;102033.28;4987461;28;20226;-84
2021/12/13 09:44:14;;;;;;;0.70;0.63;;;6.60;99.90;;;6.29;100.00;102030.88;5005340;28;20215;-84
2021/12/13 09:46:48;;;;;;;0.10;0.10;;;6.60;99.90;;;6.31;100.00;102026.59;5003153;28;20211;-84
2021/12/13 09:49:43;;;;;;;0.20;0.20;;;6.60;99.90;;;6.40;100.00;102031.44;4975741;28;20751;-84
2021/12/13 09:52:31;;;;;;;0.00;0.00;;;;;;;6.46;100.00;102029.13;5000958;28;20208;-84
2021/12/13 09:55:13;;;;;;;0.10;0.10;;;6.70;99.90;;;6.51;100.00;102024.13;4984963;28;20211;-83
2021/12/13 09:58:28;;;;;;;0.10;0.10;;;6.80;99.90;;;6.56;100.00;102031.41;4983264;28;20204;-84
2021/12/13 10:01:31;;;;;;;0.00;0.00;;;6.90;99.90;;;6.62;100.00;102022.94;4939235;29;20226;-84
2021/12/13 10:04:07;;;;;;;0.10;0.10;;;7.00;99.90;;;6.68;100.00;102020.63;4945866;29;20212;-84
2021/12/13 10:06:47;;;;;;;0.10;0.10;;;6.90;99.90;;;6.73;100.00;102006.88;4976307;28;20196;-84
2021/12/13 10:09:23;;;;;;;0.00;0.00;;;7.10;99.90;;;6.78;100.00;102004.47;5004782;28;20717;-84
2021/12/13 10:12:20;;;;;;;0.10;0.10;;;7.10;99.90;;;6.83;100.00;102002.06;5015568;28;20230;-84
2021/12/13 10:15:07;;;;;;;0.00;0.00;;;7.10;99.90;;;6.86;100.00;101999.59;5014595;28;20222;-85
2021/12/13 10:17:44;;;;;;;0.05;0.05;;;7.10;99.90;;;6.91;100.00;101999.00;4982255;28;20216;-83
2021/12/13 10:20:31;;;;;;;0.00;0.00;;;7.20;99.90;;;6.96;100.00;101981.69;4977837;28;20227;-84
2021/12/13 10:22:59;;;;;;;0.00;0.00;;;;;;;7.01;100.00;101982.81;4984988;28;20219;-84
2021/12/13 10:25:39;;;;;;;0.10;0.10;;;7.30;99.90;;;7.03;100.00;101981.16;4991316;28;20211;-84
2021/12/13 10:28:13;;;;;;;0.13;0.13;;;7.40;99.90;;;7.09;100.00;101979.66;4984931;28;20217;-84
2021/12/13 10:30:52;;;;;;;0.10;0.10;;;7.40;99.90;;;7.10;100.00;101969.22;4987594;28;20231;-83
2021/12/13 10:33:25;;;;;;;0.00;0.00;;;7.40;99.90;;;7.15;100.00;101970.31;4995507;28;20204;-83
2021/12/13 10:35:55;;;;;;;0.15;0.15;;;;;;;7.24;100.00;101969.84;4958269;28;20200;-84
2021/12/13 10:38:31;;;;;;;0.20;0.20;;;7.60;99.90;;;7.32;100.00;101969.38;4974073;28;20231;-83
2021/12/13 10:41:10;;;;;;;1.00;1.00;;;7.60;99.90;;;7.33;100.00;101960.66;5001616;28;20242;-83
2021/12/13 10:43:49;;;;;;;0.03;0.03;;;7.70;99.90;;;7.44;100.00;101969.06;4986017;28;20210;-83
2021/12/13 10:46:26;;;;;;;0.05;0.05;;;7.80;99.90;;;7.44;100.00;101961.16;4977666;28;20211;-83
2021/12/13 10:49:04;;;;;;;0.10;0.10;;;7.80;99.90;;;7.47;100.00;101955.13;5007489;28;20728;-84
2021/12/13 10:51:44;;;;;;;0.00;0.00;;;7.80;99.90;;;7.48;100.00;101955.19;4984705;28;20208;-84
2021/12/13 10:54:19;;;;;;;0.00;0.00;;;7.80;99.90;;;7.55;100.00;101948.47;4984270;28;20207;-84
2021/12/13 10:56:54;;;;;;;0.00;0.00;;;7.90;99.90;;;7.60;100.00;101947.84;4967692;28;20204;-84
2021/12/13 10:59:26;;;;;;;0.10;0.10;;;7.90;99.90;;;7.67;100.00;101947.28;5004478;28;20234;-84
2021/12/13 11:02:01;;;;;;;0.65;0.65;;;8.00;99.90;;;7.74;100.00;101944.94;4993325;28;20213;-84
2021/12/13 11:04:38;;;;;;;0.00;0.00;;;8.10;99.90;;;7.76;100.00;101944.16;4965363;28;20214;-84
2021/12/13 11:07:10;;;;;;;0.00;0.00;;;8.10;99.90;;;7.82;100.00;101948.84;4994971;28;20200;-84
2021/12/13 11:09:42;;;;;;;0.10;0.10;;;8.20;99.90;;;7.86;100.00;101946.41;4977566;28;20243;-83
2021/12/13 11:12:21;;;;;;;0.03;0.03;;;8.30;99.90;;;7.83;100.00;101933.09;5000054;28;20208;-84
2021/12/13 11:14:53;;;;;;;0.10;0.10;;;8.20;99.90;;;7.86;100.00;101937.59;4962352;28;20234;-84
2021/12/13 11:17:26;;;;;;;0.10;0.10;;;8.20;99.90;;;7.90;100.00;101923.75;4977734;28;20215;-84
2021/12/13 11:20:07;;;;;;;0.00;0.00;;;8.20;99.90;;;7.89;100.00;101922.84;4977493;28;20239;-84
2021/12/13 11:22:35;;;;;;;0.10;0.10;;;;;;;7.99;100.00;101919.78;4995677;28;20564;-83
2021/12/13 11:25:19;;;;;;;0.00;0.00;;;8.30;99.90;;;8.04;100.00;101922.59;4979946;28;20204;-83
2021/12/13 11:27:47;;;;;;;0.00;0.00;;;;;;;8.00;100.00;101913.66;4994494;28;20200;-84
2021/12/13 11:30:24;;;;;;;0.00;0.00;;;8.30;99.90;;;8.02;100.00;101911.09;4980962;28;20227;-84
2021/12/13 11:32:58;;;;;;;0.10;0.10;;;8.30;99.90;;;8.08;100.00;101907.81;4963380;28;20212;-84
2021/12/13 11:36:07;;;;;;;0.10;0.10;;;8.30;99.90;;;8.15;100.00;101915.16;4992298;28;20196;-84
2021/12/13 11:39:29;;;;;;;0.35;0.35;;;8.40;99.90;;;8.17;100.00;101911.75;4993905;28;20200;-83